Time;durP1;ratioP1;P1;durP2;ratioP2;P2;SDS_P1;SDS_P2;PMS_P1;PMS_P2;Temp;Humidity;BMP_temperature;BMP_pressure;BME280_temperature;BME280_humidity;BME280_pressure;Samples;Min_cycle;Max_cycle;Signal;HPM_P1;HPM_P2
2022/01/10 00:03:25;;;;;;;;;;;;;;;21.39;29.75;94878.97;10394244;28;1839;-58
2022/01/10 00:08:25;;;;;;;;;;;;;;;21.39;29.54;94876.34;10392758;28;1819;-59
2022/01/10 00:13:26;;;;;;;;;;;;;;;21.38;30.05;94881.94;10393025;28;1777;-59
2022/01/10 00:18:26;;;;;;;;;;;;;;;21.37;29.72;94878.50;10396674;28;2001;-59
2022/01/10 00:23:28;;;;;;;;;;;;;;;21.37;29.86;94875.88;10392755;28;1929;-57
2022/01/10 00:28:29;;;;;;;;;;;;;;;21.37;29.61;94875.13;10391393;28;1886;-59
2022/01/10 00:33:29;;;;;;;;;;;;;;;21.37;29.46;94880.38;10392189;28;1801;-60
2022/01/10 00:38:29;;;;;;;;;;;;;;;21.38;29.37;94874.81;10393608;28;1906;-60
2022/01/10 00:43:36;;;;;;;;;;;;;;;21.37;29.69;94869.84;10392128;28;1836;-59
2022/01/10 00:48:36;;;;;;;;;;;;;;;21.36;29.35;94870.91;10395226;28;1761;-59
2022/01/10 00:53:36;;;;;;;;;;;;;;;21.38;29.58;94884.56;10391478;28;1835;-59
2022/01/10 00:58:37;;;;;;;;;;;;;;;21.38;29.26;94889.84;10388192;28;1969;-59
2022/01/10 01:03:37;;;;;;;;;;;;;;;21.38;29.22;94890.63;10393930;28;1824;-59
2022/01/10 01:08:38;;;;;;;;;;;;;;;21.37;29.04;94902.22;10393908;28;1801;-59
2022/01/10 01:13:50;;;;;;;;;;;;;;;21.36;29.25;94902.53;10373249;28;1911;-60
2022/01/10 01:24:08;;;;;;;;;;;;;;;21.37;29.09;94919.94;10393429;28;1843;-59
2022/01/10 01:29:09;;;;;;;;;;;;;;;21.37;29.04;94933.09;10395123;28;1789;-58
2022/01/10 01:34:10;;;;;;;;;;;;;;;21.37;28.96;94933.09;10394009;28;1777;-58
2022/01/10 01:39:18;;;;;;;;;;;;;;;21.34;29.16;94939.75;10393371;28;1923;-58
2022/01/10 01:44:18;;;;;;;;;;;;;;;21.36;29.24;94957.91;10390201;28;1868;-58
2022/01/10 01:49:18;;;;;;;;;;;;;;;21.34;29.15;94960.06;10388019;28;1935;-59
2022/01/10 01:54:20;;;;;;;;;;;;;;;21.34;28.87;94957.41;10387714;28;1875;-59
2022/01/10 01:59:20;;;;;;;;;;;;;;;21.34;29.26;94962.69;10390472;28;1902;-58
2022/01/10 02:04:21;;;;;;;;;;;;;;;21.35;28.74;94969.53;10393717;28;1769;-60
2022/01/10 02:09:21;;;;;;;;;;;;;;;21.34;29.07;94965.31;10397037;28;1916;-57
2022/01/10 02:14:22;;;;;;;;;;;;;;;21.36;28.97;94981.63;10386290;28;1823;-59
2022/01/10 02:19:24;;;;;;;;;;;;;;;21.36;28.67;94979.00;10396851;28;1914;-58
2022/01/10 02:24:24;;;;;;;;;;;;;;;21.35;28.74;94996.66;10399030;28;1858;-60
2022/01/10 02:29:25;;;;;;;;;;;;;;;21.35;28.88;95001.16;10399581;28;1768;-60
2022/01/10 02:34:26;;;;;;;;;;;;;;;21.33;28.70;94998.81;10401437;28;1820;-60
2022/01/10 02:39:26;;;;;;;;;;;;;;;21.34;28.62;95007.50;10398261;28;2101;-59
2022/01/10 02:44:29;;;;;;;;;;;;;;;21.35;28.65;95022.25;10395677;28;1745;-58
2022/01/10 02:49:30;;;;;;;;;;;;;;;21.34;28.32;95028.59;10394002;28;1928;-59
2022/01/10 02:54:30;;;;;;;;;;;;;;;21.32;28.83;95033.38;10392597;28;2051;-59
2022/01/10 02:59:30;;;;;;;;;;;;;;;21.35;28.74;95038.09;10394985;28;1971;-59
2022/01/10 03:04:31;;;;;;;;;;;;;;;21.34;28.77;95047.03;10393406;28;1869;-59
2022/01/10 03:09:31;;;;;;;;;;;;;;;21.33;28.81;95050.78;10396289;28;2170;-59
2022/01/10 03:14:32;;;;;;;;;;;;;;;21.32;28.49;95055.25;10398542;28;1777;-58
2022/01/10 03:19:32;;;;;;;;;;;;;;;21.34;28.51;95057.59;10397396;28;1910;-59
2022/01/10 03:24:33;;;;;;;;;;;;;;;21.33;29.00;95066.59;10394973;28;1775;-59
2022/01/10 03:29:33;;;;;;;;;;;;;;;21.35;28.26;95069.72;10390374;28;1818;-59
2022/01/10 03:34:34;;;;;;;;;;;;;;;21.32;28.10;95072.91;10397206;28;1802;-59
2022/01/10 03:39:35;;;;;;;;;;;;;;;21.33;28.51;95072.63;10398977;28;1898;-59
2022/01/10 03:44:35;;;;;;;;;;;;;;;21.31;28.57;95077.41;10394565;28;1771;-59
2022/01/10 03:49:36;;;;;;;;;;;;;;;21.32;28.55;95086.88;10399311;28;1735;-59
2022/01/10 03:54:36;;;;;;;;;;;;;;;21.31;28.55;95087.19;10394605;28;1897;-59
2022/01/10 03:59:37;;;;;;;;;;;;;;;21.31;28.45;95090.59;10396425;28;1906;-60
2022/01/10 04:04:38;;;;;;;;;;;;;;;21.30;28.34;95098.78;10397314;28;1923;-60
2022/01/10 04:09:39;;;;;;;;;;;;;;;21.29;28.63;95097.25;10398820;28;2191;-59
2022/01/10 04:14:39;;;;;;;;;;;;;;;21.30;28.17;95109.34;10397188;28;1762;-60
2022/01/10 04:19:39;;;;;;;;;;;;;;;21.30;28.29;95109.34;10396704;28;2180;-58
2022/01/10 04:24:40;;;;;;;;;;;;;;;21.28;28.63;95117.56;10394801;28;1802;-59
2022/01/10 04:29:40;;;;;;;;;;;;;;;21.28;28.71;95125.47;10399909;28;1846;-58
2022/01/10 04:34:41;;;;;;;;;;;;;;;21.30;28.53;95133.84;10397724;28;1921;-58
2022/01/10 04:39:41;;;;;;;;;;;;;;;21.30;28.39;95140.97;10397460;28;1955;-59
2022/01/10 04:44:42;;;;;;;;;;;;;;;21.28;28.61;95148.41;10396592;28;1845;-58
2022/01/10 04:50:40;;;;;;;;;;;;;;;21.31;28.60;95150.47;10394016;28;1920;-58
2022/01/10 04:55:07;;;;;;;;;;;;;;;21.29;28.32;95165.78;10386739;28;1922;-58
2022/01/10 05:00:08;;;;;;;;;;;;;;;21.30;28.34;95170.75;10390892;28;2031;-58
2022/01/10 05:05:08;;;;;;;;;;;;;;;21.28;28.46;95182.66;10393699;28;1996;-58
2022/01/10 05:10:09;;;;;;;;;;;;;;;21.28;28.29;95182.66;10390526;28;2021;-59
2022/01/10 05:15:09;;;;;;;;;;;;;;;21.26;28.51;95187.44;10387726;28;1977;-59
2022/01/10 05:20:10;;;;;;;;;;;;;;;21.28;28.29;95195.84;10409388;22;1947;-49
2022/01/10 05:25:10;;;;;;;;;;;;;;;21.26;28.42;95204.06;10391432;28;2325;-48
2022/01/10 05:30:11;;;;;;;;;;;;;;;21.25;29.14;95206.97;10401935;28;1984;-47
2022/01/10 05:35:11;;;;;;;;;;;;;;;21.31;29.25;95213.72;10398032;28;1985;-45
2022/01/10 05:40:12;;;;;;;;;;;;;;;21.32;29.72;95225.81;10402415;28;1960;-49
2022/01/10 05:45:12;;;;;;;;;;;;;;;21.30;29.89;95226.13;10402882;28;2041;-49
2022/01/10 05:50:13;;;;;;;;;;;;;;;21.32;29.35;95239.78;10412418;28;2009;-51
2022/01/10 05:55:14;;;;;;;;;;;;;;;21.32;29.72;95245.06;10413682;28;1969;-49
2022/01/10 06:00:14;;;;;;;;;;;;;;;21.32;30.06;95260.09;10396677;28;1968;-52
2022/01/10 06:05:15;;;;;;;;;;;;;;;21.32;30.25;95268.00;10413261;28;2050;-48
2022/01/10 06:10:15;;;;;;;;;;;;;;;21.36;30.36;95274.25;10407836;28;1928;-49
2022/01/10 06:15:16;;;;;;;;;;;;;;;21.35;30.07;95281.38;10411534;28;1934;-50
2022/01/10 06:20:16;;;;;;;;;;;;;;;21.35;30.19;95284.03;10411442;28;2064;-47
2022/01/10 06:25:18;;;;;;;;;;;;;;;21.38;30.39;95301.13;10412650;28;1997;-48
2022/01/10 06:30:18;;;;;;;;;;;;;;;21.37;30.29;95302.97;10411334;28;2051;-48
2022/01/10 06:35:18;;;;;;;;;;;;;;;21.37;30.15;95316.16;10415307;28;1913;-48
2022/01/10 06:40:19;;;;;;;;;;;;;;;21.38;30.07;95323.00;10411061;28;2138;-48
2022/01/10 06:45:19;;;;;;;;;;;;;;;21.37;30.19;95334.59;10409296;28;1964;-45
2022/01/10 06:50:20;;;;;;;;;;;;;;;21.37;30.04;95342.50;10404696;28;1972;-48
2022/01/10 06:55:20;;;;;;;;;;;;;;;21.39;29.90;95352.78;10412388;28;1984;-46
2022/01/10 07:00:20;;;;;;;;;;;;;;;21.36;30.08;95356.78;10388132;28;1946;-47
2022/01/10 07:05:21;;;;;;;;;;;;;;;21.37;30.24;95366.25;10402001;28;1938;-46
2022/01/10 07:10:21;;;;;;;;;;;;;;;21.38;30.18;95388.13;10405200;28;1940;-45
2022/01/10 07:15:24;;;;;;;;;;;;;;;21.38;30.00;95385.50;10393175;28;2005;-47
2022/01/10 07:20:27;;;;;;;;;;;;;;;21.38;30.06;95391.56;10398865;28;1917;-50
2022/01/10 07:25:28;;;;;;;;;;;;;;;21.38;29.94;95406.59;10400801;28;1827;-46
2022/01/10 07:30:28;;;;;;;;;;;;;;;21.38;29.97;95411.84;10400555;28;1839;-51
2022/01/10 07:35:29;;;;;;;;;;;;;;;21.42;29.79;95426.03;10403457;28;1941;-47
2022/01/10 07:40:29;;;;;;;;;;;;;;;21.41;30.19;95442.94;10395420;28;1790;-50
2022/01/10 07:45:30;;;;;;;;;;;;;;;21.40;30.31;95449.28;10399535;28;2390;-45
2022/01/10 07:50:30;;;;;;;;;;;;;;;21.41;30.62;95464.03;10402604;28;1786;-48
2022/01/10 07:55:30;;;;;;;;;;;;;;;21.42;30.53;95466.38;10399205;28;1911;-49
2022/01/10 08:00:31;;;;;;;;;;;;;;;21.41;30.61;95472.72;10401815;28;1795;-45
2022/01/10 08:05:31;;;;;;;;;;;;;;;21.42;30.61;95486.69;10401725;28;1771;-48
2022/01/10 08:10:32;;;;;;;;;;;;;;;21.41;30.51;95482.50;10402004;28;1870;-52
2022/01/10 08:15:32;;;;;;;;;;;;;;;21.39;30.54;95492.53;10401212;28;1914;-48
2022/01/10 08:20:33;;;;;;;;;;;;;;;21.42;30.66;95503.28;10397565;28;1894;-46
2022/01/10 08:25:33;;;;;;;;;;;;;;;21.43;30.42;95514.63;10400434;28;1781;-48
2022/01/10 08:30:34;;;;;;;;;;;;;;;21.42;30.50;95521.75;10397962;28;1803;-50
2022/01/10 08:35:35;;;;;;;;;;;;;;;21.40;30.47;95518.63;10397254;28;1971;-49
2022/01/10 08:40:35;;;;;;;;;;;;;;;21.40;30.32;95531.81;10398188;28;1835;-47
2022/01/10 08:45:39;;;;;;;;;;;;;;;21.41;30.38;95540.50;10392482;28;1799;-48
2022/01/10 08:50:39;;;;;;;;;;;;;;;21.41;30.17;95545.78;10394095;28;1831;-47
2022/01/10 08:55:40;;;;;;;;;;;;;;;21.37;30.28;95550.06;10400352;28;1894;-49
2022/01/10 09:00:40;;;;;;;;;;;;;;;21.38;30.06;95570.06;10394459;28;1819;-52
2022/01/10 09:05:41;;;;;;;;;;;;;;;21.37;30.05;95571.16;10398115;28;1801;-47
2022/01/10 09:10:41;;;;;;;;;;;;;;;21.37;30.06;95582.44;10399031;28;1969;-48
2022/01/10 09:15:42;;;;;;;;;;;;;;;21.37;29.91;95594.88;10396746;28;1894;-49
2022/01/10 09:20:42;;;;;;;;;;;;;;;21.37;29.98;95597.50;10395790;28;1791;-47
2022/01/10 09:25:44;;;;;;;;;;;;;;;21.34;30.07;95611.25;10398210;28;1925;-50
2022/01/10 09:30:45;;;;;;;;;;;;;;;21.35;30.05;95615.47;10396284;28;1824;-50
2022/01/10 09:35:45;;;;;;;;;;;;;;;21.36;29.85;95619.66;10397776;28;1906;-48
2022/01/10 09:40:46;;;;;;;;;;;;;;;21.35;29.95;95626.00;10416653;28;1779;-46
2022/01/10 09:45:46;;;;;;;;;;;;;;;21.36;29.74;95635.47;10394850;28;1909;-46
2022/01/10 09:50:47;;;;;;;;;;;;;;;21.36;29.78;95641.53;10399295;28;1866;-48
2022/01/10 09:55:48;;;;;;;;;;;;;;;21.37;29.85;95647.59;10395960;28;1959;-46
2022/01/10 10:00:48;;;;;;;;;;;;;;;21.38;29.54;95654.44;10380684;28;1867;-49
2022/01/10 10:05:52;;;;;;;;;;;;;;;21.38;29.57;95647.31;10397043;28;1983;-46
2022/01/10 10:10:53;;;;;;;;;;;;;;;21.35;29.84;95660.28;10395757;28;1970;-46
2022/01/10 10:15:55;;;;;;;;;;;;;;;21.37;29.44;95663.44;10399063;28;1914;-47
2022/01/10 10:20:55;;;;;;;;;;;;;;;21.36;29.57;95667.13;10398339;28;1810;-46
2022/01/10 10:25:56;;;;;;;;;;;;;;;21.38;29.62;95680.81;10416988;28;2270;-47
2022/01/10 10:30:57;;;;;;;;;;;;;;;21.35;29.64;95686.66;10420339;28;1775;-48
2022/01/10 10:36:07;;;;;;;;;;;;;;;21.36;29.73;95696.13;10405854;28;1930;-49
2022/01/10 10:41:08;;;;;;;;;;;;;;;21.38;29.83;95701.91;10401973;28;1882;-48
2022/01/10 10:46:16;;;;;;;;;;;;;;;21.38;30.32;95697.41;10396081;28;1783;-48
2022/01/10 10:51:16;;;;;;;;;;;;;;;21.48;30.64;95717.63;10399297;28;1821;-49
2022/01/10 10:56:17;;;;;;;;;;;;;;;21.51;30.30;95722.34;10400390;28;1947;-52
2022/01/10 11:01:17;;;;;;;;;;;;;;;21.48;30.43;95733.44;10400212;28;1815;-50
2022/01/10 11:06:18;;;;;;;;;;;;;;;21.48;30.38;95738.72;10403393;28;1834;-48
2022/01/10 11:11:22;;;;;;;;;;;;;;;21.48;30.38;95749.25;10400284;28;1814;-49
2022/01/10 11:16:23;;;;;;;;;;;;;;;21.47;30.46;95758.25;10399714;28;2010;-49
2022/01/10 11:21:23;;;;;;;;;;;;;;;21.45;30.09;95757.75;10386653;23;3616;-55
2022/01/10 11:26:23;;;;;;;;;;;;;;;21.45;30.23;95768.28;10363113;28;1839;-54
2022/01/10 11:31:25;;;;;;;;;;;;;;;21.44;30.22;95774.63;10351640;28;1908;-59
2022/01/10 11:36:25;;;;;;;;;;;;;;;21.43;30.17;95763.28;10349311;28;1914;-58
2022/01/10 11:41:27;;;;;;;;;;;;;;;21.42;30.37;95766.19;10358048;28;1824;-56
2022/01/10 11:46:27;;;;;;;;;;;;;;;21.44;30.03;95775.41;10356502;28;1966;-55
2022/01/10 11:51:31;;;;;;;;;;;;;;;21.42;30.10;95785.44;10358217;28;1808;-58
2022/01/10 11:56:32;;;;;;;;;;;;;;;21.42;29.98;95784.66;10357945;28;2053;-57
2022/01/10 12:01:33;;;;;;;;;;;;;;;21.43;29.84;95780.97;10361416;28;1871;-56
2022/01/10 12:06:34;;;;;;;;;;;;;;;21.42;30.13;95792.56;10355273;28;1763;-56
2022/01/10 12:11:36;;;;;;;;;;;;;;;21.41;29.89;95797.06;10341903;28;1863;-57
2022/01/10 12:16:37;;;;;;;;;;;;;;;21.41;29.85;95797.06;10358029;28;1910;-57
2022/01/10 12:21:37;;;;;;;;;;;;;;;21.39;30.03;95809.72;10354003;28;1784;-57
2022/01/10 12:26:38;;;;;;;;;;;;;;;21.40;30.13;95810.53;10353084;28;1984;-58
2022/01/10 12:31:39;;;;;;;;;;;;;;;21.43;29.99;95817.88;10354023;28;1805;-55
2022/01/10 12:36:39;;;;;;;;;;;;;;;21.42;30.10;95822.38;10374366;28;1914;-56
2022/01/10 12:41:40;;;;;;;;;;;;;;;21.42;29.94;95830.28;10356667;28;1775;-57
2022/01/10 12:46:40;;;;;;;;;;;;;;;21.42;29.94;95830.28;10356517;28;1772;-57
2022/01/10 12:51:42;;;;;;;;;;;;;;;21.43;29.89;95836.34;10358162;28;1875;-57
2022/01/10 12:56:43;;;;;;;;;;;;;;;21.41;29.76;95849.03;10361381;28;1992;-54
2022/01/10 13:01:43;;;;;;;;;;;;;;;21.43;29.58;95846.91;10358150;28;1855;-56
2022/01/10 13:06:44;;;;;;;;;;;;;;;21.39;29.50;95857.19;10356965;28;1855;-59
2022/01/10 13:11:47;;;;;;;;;;;;;;;21.39;29.73;95865.09;10358042;28;1633;-56
2022/01/10 13:16:57;;;;;;;;;;;;;;;21.41;29.55;95870.13;10357459;28;2029;-58
2022/01/10 13:21:59;;;;;;;;;;;;;;;21.41;29.70;95878.03;10355681;28;2479;-57
2022/01/10 13:27:04;;;;;;;;;;;;;;;21.39;29.88;95885.44;10359655;28;1813;-59
2022/01/10 13:32:19;;;;;;;;;;;;;;;21.39;29.64;95888.84;10355723;28;1843;-56
2022/01/10 13:37:26;;;;;;;;;;;;;;;21.40;29.56;95900.97;10361122;28;1970;-61
2022/01/10 13:42:27;;;;;;;;;;;;;;;21.40;29.58;95902.81;10355643;28;1864;-58
2022/01/10 13:47:27;;;;;;;;;;;;;;;21.39;29.83;95915.22;10358399;28;1772;-54
2022/01/10 13:52:28;;;;;;;;;;;;;;;21.41;29.34;95917.59;10335198;28;1843;-57
2022/01/10 13:57:29;;;;;;;;;;;;;;;21.39;29.35;95915.22;10354961;28;1914;-54
2022/01/10 14:02:39;;;;;;;;;;;;;;;21.39;29.58;95920.47;10354685;28;1824;-62
2022/01/10 14:07:39;;;;;;;;;;;;;;;21.38;29.50;95928.69;10363084;28;1848;-56
2022/01/10 14:12:40;;;;;;;;;;;;;;;21.38;29.55;95940.00;10363286;28;1780;-57
2022/01/10 14:17:40;;;;;;;;;;;;;;;21.38;29.48;95942.66;10363891;28;1969;-58
2022/01/10 14:22:40;;;;;;;;;;;;;;;21.39;29.59;95946.84;10365048;28;1776;-56
2022/01/10 14:27:42;;;;;;;;;;;;;;;21.38;29.56;95953.19;10363586;28;1851;-59
2022/01/10 14:32:43;;;;;;;;;;;;;;;21.40;29.62;95968.75;10366422;28;1843;-58
2022/01/10 14:37:43;;;;;;;;;;;;;;;21.39;29.61;95983.00;10364376;28;1910;-56
2022/01/10 14:42:43;;;;;;;;;;;;;;;21.41;29.25;95994.84;10364667;28;1771;-59
2022/01/10 14:47:44;;;;;;;;;;;;;;;21.38;29.40;96005.16;10362722;28;1927;-57
2022/01/10 14:52:44;;;;;;;;;;;;;;;21.39;29.34;96009.38;10360010;28;1829;-54
2022/01/10 14:57:45;;;;;;;;;;;;;;;21.39;29.52;96006.75;10360710;28;1914;-57
2022/01/10 15:02:45;;;;;;;;;;;;;;;21.37;29.52;96011.50;10359775;28;1777;-56
2022/01/10 15:07:46;;;;;;;;;;;;;;;21.41;29.23;96021.22;10344977;28;1848;-56
2022/01/10 15:12:46;;;;;;;;;;;;;;;21.39;29.55;96025.19;10361029;28;1792;-57
2022/01/10 15:17:49;;;;;;;;;;;;;;;21.39;29.41;96041.03;10361141;28;1902;-57
2022/01/10 15:22:50;;;;;;;;;;;;;;;21.39;29.29;96046.28;10360030;28;1902;-58
2022/01/10 15:27:50;;;;;;;;;;;;;;;21.39;29.22;96057.59;10364296;28;1733;-55
2022/01/10 15:32:50;;;;;;;;;;;;;;;21.39;29.21;96065.53;10362549;28;1775;-58
2022/01/10 15:37:51;;;;;;;;;;;;;;;21.38;29.38;96063.97;10363639;28;1962;-59
2022/01/10 15:42:51;;;;;;;;;;;;;;;21.37;29.30;96080.81;10363007;28;1780;-54
2022/01/10 15:47:52;;;;;;;;;;;;;;;21.37;29.48;96086.09;10363767;28;1942;-58
2022/01/10 15:52:52;;;;;;;;;;;;;;;21.39;29.21;96089.25;10362797;28;1811;-56
2022/01/10 15:57:54;;;;;;;;;;;;;;;21.39;29.33;96099.03;10360544;28;1922;-59
2022/01/10 16:02:54;;;;;;;;;;;;;;;21.39;29.30;96114.84;10373413;28;1962;-63
2022/01/10 16:07:55;;;;;;;;;;;;;;;21.41;29.06;96118.78;10373967;28;1824;-58
2022/01/10 16:12:55;;;;;;;;;;;;;;;21.39;29.16;96122.78;10340342;28;1768;-58
2022/01/10 16:17:55;;;;;;;;;;;;;;;21.41;29.23;96136.47;10360965;28;2021;-59
2022/01/10 16:22:56;;;;;;;;;;;;;;;21.38;29.14;96144.91;10360566;28;1760;-57
2022/01/10 16:27:56;;;;;;;;;;;;;;;21.37;29.28;96162.56;10360315;28;1921;-59
2022/01/10 16:32:57;;;;;;;;;;;;;;;21.37;29.25;96169.72;10356436;28;1797;-58
2022/01/10 16:37:57;;;;;;;;;;;;;;;21.39;29.09;96178.16;10360389;28;1964;-57
2022/01/10 16:43:00;;;;;;;;;;;;;;;21.38;29.10;96193.19;10359845;28;1807;-57
2022/01/10 16:48:01;;;;;;;;;;;;;;;21.36;29.06;96191.84;10358921;28;1807;-55
2022/01/10 16:53:01;;;;;;;;;;;;;;;21.37;29.31;96199.50;10358024;28;1831;-53
2022/01/10 16:58:02;;;;;;;;;;;;;;;21.39;29.21;96204.53;10361025;28;1970;-56
2022/01/10 17:03:02;;;;;;;;;;;;;;;21.39;29.02;96213.19;10353455;28;1822;-55
2022/01/10 17:08:04;;;;;;;;;;;;;;;21.39;29.07;96210.56;10360261;28;1863;-55
2022/01/10 17:13:05;;;;;;;;;;;;;;;21.38;29.08;96224.81;10354011;28;1858;-54
2022/01/10 17:18:05;;;;;;;;;;;;;;;21.37;29.15;96241.69;10357271;28;1914;-56
2022/01/10 17:23:06;;;;;;;;;;;;;;;21.37;29.24;96233.78;10346660;28;1764;-59
2022/01/10 17:28:06;;;;;;;;;;;;;;;21.38;29.01;96230.09;10400465;23;2508;-72
2022/01/10 17:33:07;;;;;;;;;;;;;;;21.38;29.13;96243.28;10422366;22;1768;-42
2022/01/10 17:38:07;;;;;;;;;;;;;;;21.40;29.46;96246.44;10344631;28;1954;-40
2022/01/10 17:43:08;;;;;;;;;;;;;;;21.45;29.41;96266.75;10354197;28;1872;-39
2022/01/10 17:48:09;;;;;;;;;;;;;;;21.46;30.03;96268.31;10356509;28;1797;-39
2022/01/10 17:53:10;;;;;;;;;;;;;;;21.52;29.86;96277.81;10355017;28;1895;-50
2022/01/10 17:58:10;;;;;;;;;;;;;;;21.52;29.75;96278.59;10349641;28;1970;-48
2022/01/10 18:03:11;;;;;;;;;;;;;;;21.52;29.64;96285.72;10353778;28;2392;-43
2022/01/10 18:08:12;;;;;;;;;;;;;;;21.51;29.82;96299.97;10357863;28;1910;-42
2022/01/10 18:13:12;;;;;;;;;;;;;;;21.53;29.93;96308.41;10350977;28;1867;-40
2022/01/10 18:18:13;;;;;;;;;;;;;;;21.52;29.92;96304.19;10351187;28;2002;-40
2022/01/10 18:23:14;;;;;;;;;;;;;;;21.54;29.58;96308.13;10352882;28;2000;-44
2022/01/10 18:28:17;;;;;;;;;;;;;;;21.54;29.51;96320.53;10357364;28;2067;-43
2022/01/10 18:33:17;;;;;;;;;;;;;;;21.53;29.55;96326.88;10349963;28;1974;-41
2022/01/10 18:38:18;;;;;;;;;;;;;;;21.53;29.76;96327.69;10359189;28;1933;-41
2022/01/10 18:43:19;;;;;;;;;;;;;;;21.55;28.95;96340.59;10351900;28;1945;-40
2022/01/10 18:48:20;;;;;;;;;;;;;;;21.55;29.55;96341.38;10356471;28;1963;-43
2022/01/10 18:53:21;;;;;;;;;;;;;;;21.57;30.01;96352.47;10358885;28;1989;-40
2022/01/10 18:58:21;;;;;;;;;;;;;;;21.59;30.04;96360.09;10363931;28;1990;-43
2022/01/10 19:03:23;;;;;;;;;;;;;;;21.59;30.12;96366.19;10361069;28;2064;-42
2022/01/10 19:08:23;;;;;;;;;;;;;;;21.61;30.64;96365.91;10361586;28;2092;-40
2022/01/10 19:13:24;;;;;;;;;;;;;;;21.61;31.02;96365.91;10359692;28;1954;-44
2022/01/10 19:18:24;;;;;;;;;;;;;;;21.63;30.84;96375.16;10357454;28;1989;-43
2022/01/10 19:23:25;;;;;;;;;;;;;;;21.65;31.20;96380.94;10359581;28;1867;-47
2022/01/10 19:28:26;;;;;;;;;;;;;;;21.65;31.37;96393.34;10362748;28;1860;-44
2022/01/10 19:33:26;;;;;;;;;;;;;;;21.64;31.19;96394.38;10361475;28;2181;-45
2022/01/10 19:38:26;;;;;;;;;;;;;;;21.64;31.42;96407.56;10362787;28;1969;-41
2022/01/10 19:43:27;;;;;;;;;;;;;;;21.64;31.75;96410.22;10362698;28;1962;-44
2022/01/10 19:48:27;;;;;;;;;;;;;;;21.64;31.75;96403.09;10364460;28;1911;-44
2022/01/10 19:53:28;;;;;;;;;;;;;;;21.66;30.76;96408.09;10343816;28;1962;-46
2022/01/10 19:58:28;;;;;;;;;;;;;;;21.65;30.99;96409.97;10363598;28;1917;-43
2022/01/10 20:03:29;;;;;;;;;;;;;;;21.64;31.43;96421.56;10360708;28;2012;-39
2022/01/10 20:08:31;;;;;;;;;;;;;;;21.66;31.71;96419.47;10365129;28;2191;-37
2022/01/10 20:13:32;;;;;;;;;;;;;;;21.69;32.08;96424.22;10362727;28;1917;-41
2022/01/10 20:18:33;;;;;;;;;;;;;;;21.70;31.73;96427.66;10362767;28;1898;-40
2022/01/10 20:23:34;;;;;;;;;;;;;;;21.69;32.32;96436.63;10362501;28;1920;-40
2022/01/10 20:28:34;;;;;;;;;;;;;;;21.69;32.00;96420.78;10340509;28;1974;-46
2022/01/10 20:33:34;;;;;;;;;;;;;;;21.69;32.22;96423.41;10357717;28;1967;-44
2022/01/10 20:38:35;;;;;;;;;;;;;;;21.69;32.78;96432.13;10362646;28;1969;-41
2022/01/10 20:43:37;;;;;;;;;;;;;;;21.71;32.49;96430.03;10361924;28;1881;-44
2022/01/10 20:48:38;;;;;;;;;;;;;;;21.70;32.67;96427.66;10344704;28;1950;-44
2022/01/10 20:53:39;;;;;;;;;;;;;;;21.71;32.45;96442.41;10357818;28;2459;-46
2022/01/10 20:58:39;;;;;;;;;;;;;;;21.72;32.59;96444.03;10357606;28;1961;-47
2022/01/10 21:03:42;;;;;;;;;;;;;;;21.71;32.50;96452.97;10356941;28;2355;-44
2022/01/10 21:08:43;;;;;;;;;;;;;;;21.73;32.20;96456.94;10359887;28;1961;-42
2022/01/10 21:13:43;;;;;;;;;;;;;;;21.73;32.59;96458.78;10361209;28;2030;-43
2022/01/10 21:18:44;;;;;;;;;;;;;;;21.70;32.05;96460.09;10360851;28;1947;-47
2022/01/10 21:23:46;;;;;;;;;;;;;;;21.69;32.33;96468.28;10360002;28;1865;-45
2022/01/10 21:28:46;;;;;;;;;;;;;;;21.70;32.14;96469.88;10361347;28;1956;-46
2022/01/10 21:33:47;;;;;;;;;;;;;;;21.67;31.71;96475.66;10340431;28;1827;-44
2022/01/10 21:38:47;;;;;;;;;;;;;;;21.67;31.21;96478.31;10365369;28;1973;-42
2022/01/10 21:43:48;;;;;;;;;;;;;;;21.66;31.71;96482.78;10354122;28;1855;-44
2022/01/10 21:48:48;;;;;;;;;;;;;;;21.67;31.52;96486.22;10355610;28;1822;-42
2022/01/10 21:53:49;;;;;;;;;;;;;;;21.65;31.76;96489.13;10361363;28;2035;-41
2022/01/10 21:58:49;;;;;;;;;;;;;;;21.66;31.46;96495.19;10357859;28;1906;-48
2022/01/10 22:03:50;;;;;;;;;;;;;;;21.64;31.05;96499.91;10357296;28;1878;-44
2022/01/10 22:08:50;;;;;;;;;;;;;;;21.62;31.70;96507.31;10351265;28;1943;-41
2022/01/10 22:13:51;;;;;;;;;;;;;;;21.60;31.69;96502.31;10353068;28;1861;-42
2022/01/10 22:18:51;;;;;;;;;;;;;;;21.59;31.44;96510.47;10355665;28;1980;-43
2022/01/10 22:23:51;;;;;;;;;;;;;;;21.54;31.51;96513.91;10357926;28;1885;-44
2022/01/10 22:28:52;;;;;;;;;;;;;;;21.50;31.58;96512.03;10361861;28;1815;-44
2022/01/10 22:33:52;;;;;;;;;;;;;;;21.47;31.55;96523.13;10362666;28;1881;-42
2022/01/10 22:38:53;;;;;;;;;;;;;;;21.42;31.47;96518.63;10364237;28;1929;-43
2022/01/10 22:43:54;;;;;;;;;;;;;;;21.40;31.67;96520.72;10363282;28;1818;-47
2022/01/10 22:48:55;;;;;;;;;;;;;;;21.41;31.40;96521.53;10367363;28;1822;-43
2022/01/10 22:53:57;;;;;;;;;;;;;;;21.39;31.32;96518.38;10365960;28;1818;-41
2022/01/10 22:58:58;;;;;;;;;;;;;;;21.37;31.35;96523.09;10366090;28;1898;-41
2022/01/10 23:03:58;;;;;;;;;;;;;;;21.36;31.39;96524.16;10360963;28;1837;-40
2022/01/10 23:08:58;;;;;;;;;;;;;;;21.36;31.14;96532.06;10357294;28;1821;-42
2022/01/10 23:13:59;;;;;;;;;;;;;;;21.35;31.06;96527.84;10362742;28;1861;-42
2022/01/10 23:18:59;;;;;;;;;;;;;;;21.33;30.98;96530.72;10360747;28;1965;-44
2022/01/10 23:24:00;;;;;;;;;;;;;;;21.34;31.04;96540.22;10359780;28;2258;-41
2022/01/10 23:29:01;;;;;;;;;;;;;;;21.34;30.91;96544.72;10364535;23;1952;-74
2022/01/10 23:34:01;;;;;;;;;;;;;;;21.31;31.15;96547.88;10390627;28;1899;-73
2022/01/10 23:39:04;;;;;;;;;;;;;;;21.29;31.04;96557.91;10375306;28;1921;-73
2022/01/10 23:44:05;;;;;;;;;;;;;;;21.31;30.71;96561.06;10364015;28;1960;-73
2022/01/10 23:49:05;;;;;;;;;;;;;;;21.30;30.88;96562.09;10356597;28;1903;-73
2022/01/10 23:54:06;;;;;;;;;;;;;;;21.28;30.75;96557.09;10365989;28;1841;-74
2022/01/10 23:59:08;;;;;;;;;;;;;;;21.28;30.65;96554.44;10369177;28;1971;-73
